sensor_id;sensor_type;location;lat;lon;timestamp;temperature;humidity
31443;SHT31;18065;55.876;9.830;2023-03-21T00:00:52;21.92;48.38
31443;SHT31;18065;55.876;9.830;2023-03-21T00:03:23;21.87;48.38
31443;SHT31;18065;55.876;9.830;2023-03-21T00:05:52;21.87;48.40
31443;SHT31;18065;55.876;9.830;2023-03-21T00:08:22;21.92;48.37
31443;SHT31;18065;55.876;9.830;2023-03-21T00:10:54;21.89;48.37
31443;SHT31;18065;55.876;9.830;2023-03-21T00:13:22;21.90;48.40
31443;SHT31;18065;55.876;9.830;2023-03-21T00:15:52;21.92;48.36
31443;SHT31;18065;55.876;9.830;2023-03-21T00:18:24;21.92;48.37
31443;SHT31;18065;55.876;9.830;2023-03-21T00:20:56;21.89;48.37
31443;SHT31;18065;55.876;9.830;2023-03-21T00:23:25;21.92;48.34
31443;SHT31;18065;55.876;9.830;2023-03-21T00:25:54;21.89;48.33
31443;SHT31;18065;55.876;9.830;2023-03-21T00:28:22;21.92;48.38
31443;SHT31;18065;55.876;9.830;2023-03-21T00:30:55;21.90;48.30
31443;SHT31;18065;55.876;9.830;2023-03-21T00:33:26;21.92;48.33
31443;SHT31;18065;55.876;9.830;2023-03-21T00:35:55;21.92;48.31
31443;SHT31;18065;55.876;9.830;2023-03-21T00:38:24;21.90;48.34
31443;SHT31;18065;55.876;9.830;2023-03-21T00:40:52;21.89;48.33
31443;SHT31;18065;55.876;9.830;2023-03-21T00:43:21;21.89;48.31
31443;SHT31;18065;55.876;9.830;2023-03-21T00:45:54;21.90;48.31
31443;SHT31;18065;55.876;9.830;2023-03-21T00:48:23;21.90;48.29
31443;SHT31;18065;55.876;9.830;2023-03-21T00:50:54;21.87;48.28
31443;SHT31;18065;55.876;9.830;2023-03-21T00:53:23;21.87;48.28
31443;SHT31;18065;55.876;9.830;2023-03-21T00:55:51;21.92;48.25
31443;SHT31;18065;55.876;9.830;2023-03-21T00:58:20;21.90;48.25
31443;SHT31;18065;55.876;9.830;2023-03-21T01:00:48;21.87;48.27
31443;SHT31;18065;55.876;9.830;2023-03-21T01:03:18;21.87;48.23
31443;SHT31;18065;55.876;9.830;2023-03-21T01:05:46;21.90;48.24
31443;SHT31;18065;55.876;9.830;2023-03-21T01:08:30;21.89;48.25
31443;SHT31;18065;55.876;9.830;2023-03-21T01:11:03;21.89;48.34
31443;SHT31;18065;55.876;9.830;2023-03-21T01:13:32;21.89;48.26
31443;SHT31;18065;55.876;9.830;2023-03-21T01:16:00;21.87;48.30
31443;SHT31;18065;55.876;9.830;2023-03-21T01:18:29;21.89;48.25
31443;SHT31;18065;55.876;9.830;2023-03-21T01:20:58;21.87;48.31
31443;SHT31;18065;55.876;9.830;2023-03-21T01:23:27;21.92;48.28
31443;SHT31;18065;55.876;9.830;2023-03-21T01:25:58;21.90;48.28
31443;SHT31;18065;55.876;9.830;2023-03-21T01:28:27;21.89;48.29
31443;SHT31;18065;55.876;9.830;2023-03-21T01:30:56;21.89;48.26
31443;SHT31;18065;55.876;9.830;2023-03-21T01:33:24;21.90;48.32
31443;SHT31;18065;55.876;9.830;2023-03-21T01:35:53;21.89;48.34
31443;SHT31;18065;55.876;9.830;2023-03-21T01:38:21;21.89;48.35
31443;SHT31;18065;55.876;9.830;2023-03-21T01:40:50;21.87;48.32
31443;SHT31;18065;55.876;9.830;2023-03-21T01:43:22;21.90;48.31
31443;SHT31;18065;55.876;9.830;2023-03-21T01:48:35;21.87;48.39
31443;SHT31;18065;55.876;9.830;2023-03-21T01:51:04;21.86;48.38
31443;SHT31;18065;55.876;9.830;2023-03-21T01:53:33;21.89;48.40
31443;SHT31;18065;55.876;9.830;2023-03-21T01:56:02;21.87;48.42
31443;SHT31;18065;55.876;9.830;2023-03-21T01:58:36;21.87;48.41
31443;SHT31;18065;55.876;9.830;2023-03-21T02:01:05;21.87;48.42
31443;SHT31;18065;55.876;9.830;2023-03-21T02:03:34;21.86;48.42
31443;SHT31;18065;55.876;9.830;2023-03-21T02:06:14;21.87;48.41
31443;SHT31;18065;55.876;9.830;2023-03-21T02:08:44;21.89;48.41
31443;SHT31;18065;55.876;9.830;2023-03-21T02:11:13;21.89;48.33
31443;SHT31;18065;55.876;9.830;2023-03-21T02:13:44;21.89;48.40
31443;SHT31;18065;55.876;9.830;2023-03-21T02:16:13;21.87;48.43
31443;SHT31;18065;55.876;9.830;2023-03-21T02:18:46;21.87;48.43
31443;SHT31;18065;55.876;9.830;2023-03-21T02:24:22;21.86;48.43
31443;SHT31;18065;55.876;9.830;2023-03-21T02:26:56;21.86;48.41
31443;SHT31;18065;55.876;9.830;2023-03-21T02:29:39;21.87;48.38
31443;SHT31;18065;55.876;9.830;2023-03-21T02:32:13;21.89;48.37
31443;SHT31;18065;55.876;9.830;2023-03-21T02:34:51;21.87;48.40
31443;SHT31;18065;55.876;9.830;2023-03-21T02:37:25;21.86;48.39
31443;SHT31;18065;55.876;9.830;2023-03-21T02:39:59;21.84;48.40
31443;SHT31;18065;55.876;9.830;2023-03-21T02:42:33;21.87;48.43
31443;SHT31;18065;55.876;9.830;2023-03-21T02:45:06;21.86;48.49
31443;SHT31;18065;55.876;9.830;2023-03-21T02:47:37;21.86;48.41
31443;SHT31;18065;55.876;9.830;2023-03-21T02:50:08;21.87;48.46
31443;SHT31;18065;55.876;9.830;2023-03-21T02:52:42;21.87;48.43
31443;SHT31;18065;55.876;9.830;2023-03-21T02:55:11;21.89;48.45
31443;SHT31;18065;55.876;9.830;2023-03-21T02:57:41;21.86;48.50
31443;SHT31;18065;55.876;9.830;2023-03-21T03:00:11;21.87;48.40
31443;SHT31;18065;55.876;9.830;2023-03-21T03:02:41;21.86;48.49
31443;SHT31;18065;55.876;9.830;2023-03-21T03:05:11;21.87;48.50
31443;SHT31;18065;55.876;9.830;2023-03-21T03:07:45;21.86;48.54
31443;SHT31;18065;55.876;9.830;2023-03-21T03:10:23;21.87;48.51
31443;SHT31;18065;55.876;9.830;2023-03-21T03:12:56;21.87;48.49
31443;SHT31;18065;55.876;9.830;2023-03-21T03:15:28;21.86;48.46
31443;SHT31;18065;55.876;9.830;2023-03-21T03:18:01;21.86;48.52
31443;SHT31;18065;55.876;9.830;2023-03-21T03:20:37;21.86;48.49
31443;SHT31;18065;55.876;9.830;2023-03-21T03:23:13;21.86;48.41
31443;SHT31;18065;55.876;9.830;2023-03-21T03:25:46;21.86;48.48
31443;SHT31;18065;55.876;9.830;2023-03-21T03:28:18;21.84;48.47
31443;SHT31;18065;55.876;9.830;2023-03-21T03:30:48;21.84;48.42
31443;SHT31;18065;55.876;9.830;2023-03-21T03:33:18;21.84;48.45
31443;SHT31;18065;55.876;9.830;2023-03-21T03:35:48;21.87;48.49
31443;SHT31;18065;55.876;9.830;2023-03-21T03:38:19;21.87;48.50
31443;SHT31;18065;55.876;9.830;2023-03-21T03:40:49;21.84;48.38
31443;SHT31;18065;55.876;9.830;2023-03-21T03:43:19;21.87;48.42
31443;SHT31;18065;55.876;9.830;2023-03-21T03:45:51;21.87;48.41
31443;SHT31;18065;55.876;9.830;2023-03-21T03:48:22;21.83;48.46
31443;SHT31;18065;55.876;9.830;2023-03-21T03:50:53;21.84;48.41
31443;SHT31;18065;55.876;9.830;2023-03-21T03:53:26;21.80;48.42
31443;SHT31;18065;55.876;9.830;2023-03-21T03:55:55;21.84;48.46
31443;SHT31;18065;55.876;9.830;2023-03-21T03:58:24;21.83;48.46
31443;SHT31;18065;55.876;9.830;2023-03-21T04:00:53;21.86;48.44
31443;SHT31;18065;55.876;9.830;2023-03-21T04:03:23;21.84;48.48
31443;SHT31;18065;55.876;9.830;2023-03-21T04:05:51;21.83;48.42
31443;SHT31;18065;55.876;9.830;2023-03-21T04:08:20;21.81;48.33
31443;SHT31;18065;55.876;9.830;2023-03-21T04:10:51;21.81;48.39
31443;SHT31;18065;55.876;9.830;2023-03-21T04:13:20;21.84;48.44
31443;SHT31;18065;55.876;9.830;2023-03-21T04:15:48;21.81;48.44
31443;SHT31;18065;55.876;9.830;2023-03-21T04:18:17;21.83;48.50
31443;SHT31;18065;55.876;9.830;2023-03-21T04:20:47;21.81;48.44
31443;SHT31;18065;55.876;9.830;2023-03-21T04:23:15;21.80;48.47
31443;SHT31;18065;55.876;9.830;2023-03-21T04:25:44;21.81;48.50
31443;SHT31;18065;55.876;9.830;2023-03-21T04:28:15;21.79;48.55
31443;SHT31;18065;55.876;9.830;2023-03-21T04:30:46;21.81;48.55
31443;SHT31;18065;55.876;9.830;2023-03-21T04:33:15;21.80;48.50
31443;SHT31;18065;55.876;9.830;2023-03-21T04:35:44;21.79;48.55
31443;SHT31;18065;55.876;9.830;2023-03-21T04:38:12;21.80;48.52
31443;SHT31;18065;55.876;9.830;2023-03-21T04:40:40;21.79;48.59
31443;SHT31;18065;55.876;9.830;2023-03-21T04:43:09;21.79;48.57
31443;SHT31;18065;55.876;9.830;2023-03-21T04:45:40;21.80;48.59
31443;SHT31;18065;55.876;9.830;2023-03-21T04:48:08;21.77;48.55
31443;SHT31;18065;55.876;9.830;2023-03-21T04:50:38;21.79;48.49
31443;SHT31;18065;55.876;9.830;2023-03-21T04:53:06;21.79;48.68
31443;SHT31;18065;55.876;9.830;2023-03-21T04:55:35;21.77;48.67
31443;SHT31;18065;55.876;9.830;2023-03-21T04:58:03;21.79;48.60
31443;SHT31;18065;55.876;9.830;2023-03-21T05:00:32;21.80;48.69
31443;SHT31;18065;55.876;9.830;2023-03-21T05:03:05;21.80;48.71
31443;SHT31;18065;55.876;9.830;2023-03-21T05:05:34;21.81;48.87
31443;SHT31;18065;55.876;9.830;2023-03-21T05:08:03;21.83;48.78
31443;SHT31;18065;55.876;9.830;2023-03-21T05:10:32;21.84;48.79
31443;SHT31;18065;55.876;9.830;2023-03-21T05:13:01;21.83;48.79
31443;SHT31;18065;55.876;9.830;2023-03-21T05:15:29;21.86;48.78
31443;SHT31;18065;55.876;9.830;2023-03-21T05:17:57;21.83;48.77
31443;SHT31;18065;55.876;9.830;2023-03-21T05:20:39;21.83;48.75
31443;SHT31;18065;55.876;9.830;2023-03-21T05:23:08;21.83;48.80
31443;SHT31;18065;55.876;9.830;2023-03-21T05:25:37;21.83;48.74
31443;SHT31;18065;55.876;9.830;2023-03-21T05:28:06;21.84;48.93
31443;SHT31;18065;55.876;9.830;2023-03-21T05:30:35;21.86;49.01
31443;SHT31;18065;55.876;9.830;2023-03-21T05:33:03;21.86;49.03
31443;SHT31;18065;55.876;9.830;2023-03-21T05:35:31;21.84;49.00
31443;SHT31;18065;55.876;9.830;2023-03-21T05:38:02;21.84;49.08
31443;SHT31;18065;55.876;9.830;2023-03-21T05:40:31;21.80;49.12
31443;SHT31;18065;55.876;9.830;2023-03-21T05:42:59;21.83;49.04
31443;SHT31;18065;55.876;9.830;2023-03-21T05:45:28;21.81;49.16
31443;SHT31;18065;55.876;9.830;2023-03-21T05:47:56;21.83;49.32
31443;SHT31;18065;55.876;9.830;2023-03-21T05:50:25;21.83;49.39
31443;SHT31;18065;55.876;9.830;2023-03-21T05:52:53;21.83;49.37
31443;SHT31;18065;55.876;9.830;2023-03-21T05:55:24;21.84;49.45
31443;SHT31;18065;55.876;9.830;2023-03-21T05:57:53;21.80;49.47
31443;SHT31;18065;55.876;9.830;2023-03-21T06:00:21;21.86;49.36
31443;SHT31;18065;55.876;9.830;2023-03-21T06:02:49;21.84;49.43
31443;SHT31;18065;55.876;9.830;2023-03-21T06:05:18;21.86;49.43
31443;SHT31;18065;55.876;9.830;2023-03-21T06:07:46;21.87;49.36
31443;SHT31;18065;55.876;9.830;2023-03-21T06:10:15;21.84;49.25
31443;SHT31;18065;55.876;9.830;2023-03-21T06:12:46;21.83;49.35
31443;SHT31;18065;55.876;9.830;2023-03-21T06:15:14;21.89;49.28
31443;SHT31;18065;55.876;9.830;2023-03-21T06:17:42;21.89;49.31
31443;SHT31;18065;55.876;9.830;2023-03-21T06:20:11;21.90;49.27
31443;SHT31;18065;55.876;9.830;2023-03-21T06:22:39;21.87;49.30
31443;SHT31;18065;55.876;9.830;2023-03-21T06:25:08;21.90;49.29
31443;SHT31;18065;55.876;9.830;2023-03-21T06:27:36;21.89;49.30
31443;SHT31;18065;55.876;9.830;2023-03-21T06:30:08;21.90;49.29
31443;SHT31;18065;55.876;9.830;2023-03-21T06:32:37;21.87;49.30
31443;SHT31;18065;55.876;9.830;2023-03-21T06:35:05;21.87;49.35
31443;SHT31;18065;55.876;9.830;2023-03-21T06:37:34;21.84;49.37
31443;SHT31;18065;55.876;9.830;2023-03-21T06:40:03;21.84;49.31
31443;SHT31;18065;55.876;9.830;2023-03-21T06:42:33;21.87;49.27
31443;SHT31;18065;55.876;9.830;2023-03-21T06:45:01;21.86;49.29
31443;SHT31;18065;55.876;9.830;2023-03-21T06:47:33;21.86;49.34
31443;SHT31;18065;55.876;9.830;2023-03-21T06:50:01;21.84;49.32
31443;SHT31;18065;55.876;9.830;2023-03-21T06:52:31;21.83;49.35
31443;SHT31;18065;55.876;9.830;2023-03-21T06:54:59;21.87;49.32
31443;SHT31;18065;55.876;9.830;2023-03-21T06:57:27;21.84;49.31
31443;SHT31;18065;55.876;9.830;2023-03-21T06:59:56;21.86;49.24
31443;SHT31;18065;55.876;9.830;2023-03-21T07:02:24;21.84;49.28
31443;SHT31;18065;55.876;9.830;2023-03-21T07:04:55;21.83;49.33
31443;SHT31;18065;55.876;9.830;2023-03-21T07:07:24;21.83;49.37
31443;SHT31;18065;55.876;9.830;2023-03-21T07:09:54;21.84;49.46
31443;SHT31;18065;55.876;9.830;2023-03-21T07:12:22;21.84;49.50
31443;SHT31;18065;55.876;9.830;2023-03-21T07:14:50;21.87;49.53
31443;SHT31;18065;55.876;9.830;2023-03-21T07:17:19;21.86;49.49
31443;SHT31;18065;55.876;9.830;2023-03-21T07:19:47;21.86;49.57
31443;SHT31;18065;55.876;9.830;2023-03-21T07:22:18;21.87;49.60
31443;SHT31;18065;55.876;9.830;2023-03-21T07:24:47;21.87;49.59
31443;SHT31;18065;55.876;9.830;2023-03-21T07:27:15;21.89;49.60
31443;SHT31;18065;55.876;9.830;2023-03-21T07:29:43;21.87;49.62
31443;SHT31;18065;55.876;9.830;2023-03-21T07:32:12;21.86;49.60
31443;SHT31;18065;55.876;9.830;2023-03-21T07:34:40;21.92;49.56
31443;SHT31;18065;55.876;9.830;2023-03-21T07:37:09;21.90;49.52
31443;SHT31;18065;55.876;9.830;2023-03-21T07:39:40;21.90;49.54
31443;SHT31;18065;55.876;9.830;2023-03-21T07:42:08;21.90;49.58
31443;SHT31;18065;55.876;9.830;2023-03-21T07:44:36;21.93;49.48
31443;SHT31;18065;55.876;9.830;2023-03-21T07:47:05;21.93;49.50
31443;SHT31;18065;55.876;9.830;2023-03-21T07:49:33;21.92;49.44
31443;SHT31;18065;55.876;9.830;2023-03-21T07:52:02;21.94;49.35
31443;SHT31;18065;55.876;9.830;2023-03-21T07:54:32;21.92;49.36
31443;SHT31;18065;55.876;9.830;2023-03-21T07:57:03;21.94;49.33
31443;SHT31;18065;55.876;9.830;2023-03-21T07:59:31;21.94;49.29
31443;SHT31;18065;55.876;9.830;2023-03-21T08:01:59;21.97;49.19
31443;SHT31;18065;55.876;9.830;2023-03-21T08:04:28;21.93;49.30
31443;SHT31;18065;55.876;9.830;2023-03-21T08:06:56;21.93;49.23
31443;SHT31;18065;55.876;9.830;2023-03-21T08:09:25;21.94;49.16
31443;SHT31;18065;55.876;9.830;2023-03-21T08:11:53;21.94;49.13
31443;SHT31;18065;55.876;9.830;2023-03-21T08:14:24;21.90;49.21
31443;SHT31;18065;55.876;9.830;2023-03-21T08:16:52;21.96;49.12
31443;SHT31;18065;55.876;9.830;2023-03-21T08:19:20;21.97;49.13
31443;SHT31;18065;55.876;9.830;2023-03-21T08:21:49;21.94;49.21
31443;SHT31;18065;55.876;9.830;2023-03-21T08:24:17;21.94;49.22
31443;SHT31;18065;55.876;9.830;2023-03-21T08:26:46;21.94;49.29
31443;SHT31;18065;55.876;9.830;2023-03-21T08:29:14;21.94;49.24
31443;SHT31;18065;55.876;9.830;2023-03-21T08:31:45;21.94;49.23
31443;SHT31;18065;55.876;9.830;2023-03-21T08:34:14;21.96;49.14
31443;SHT31;18065;55.876;9.830;2023-03-21T08:36:43;21.94;49.12
31443;SHT31;18065;55.876;9.830;2023-03-21T08:39:12;21.97;49.18
31443;SHT31;18065;55.876;9.830;2023-03-21T08:41:40;21.97;49.04
31443;SHT31;18065;55.876;9.830;2023-03-21T08:44:08;22.00;48.97
31443;SHT31;18065;55.876;9.830;2023-03-21T08:46:37;22.01;48.89
31443;SHT31;18065;55.876;9.830;2023-03-21T08:49:08;22.01;48.98
31443;SHT31;18065;55.876;9.830;2023-03-21T08:51:36;22.01;48.93
31443;SHT31;18065;55.876;9.830;2023-03-21T08:54:05;22.03;48.97
31443;SHT31;18065;55.876;9.830;2023-03-21T08:56:33;22.00;48.92
31443;SHT31;18065;55.876;9.830;2023-03-21T08:59:02;22.03;48.91
31443;SHT31;18065;55.876;9.830;2023-03-21T09:01:30;22.01;48.85
31443;SHT31;18065;55.876;9.830;2023-03-21T09:03:59;22.01;48.92
31443;SHT31;18065;55.876;9.830;2023-03-21T09:06:31;22.06;48.83
31443;SHT31;18065;55.876;9.830;2023-03-21T09:08:59;22.06;48.83
31443;SHT31;18065;55.876;9.830;2023-03-21T09:11:30;22.06;48.78
31443;SHT31;18065;55.876;9.830;2023-03-21T09:13:58;22.06;48.84
31443;SHT31;18065;55.876;9.830;2023-03-21T09:16:26;22.08;48.75
31443;SHT31;18065;55.876;9.830;2023-03-21T09:18:55;22.07;48.75
31443;SHT31;18065;55.876;9.830;2023-03-21T09:21:24;22.07;48.73
31443;SHT31;18065;55.876;9.830;2023-03-21T09:23:56;22.10;48.68
31443;SHT31;18065;55.876;9.830;2023-03-21T09:26:25;22.08;48.65
31443;SHT31;18065;55.876;9.830;2023-03-21T09:28:53;22.11;48.74
31443;SHT31;18065;55.876;9.830;2023-03-21T09:31:23;22.11;48.53
31443;SHT31;18065;55.876;9.830;2023-03-21T09:33:53;22.10;48.59
31443;SHT31;18065;55.876;9.830;2023-03-21T09:36:22;22.10;48.53
31443;SHT31;18065;55.876;9.830;2023-03-21T09:38:51;22.11;48.51
31443;SHT31;18065;55.876;9.830;2023-03-21T09:44:16;22.11;48.50
31443;SHT31;18065;55.876;9.830;2023-03-21T09:46:50;22.10;48.46
31443;SHT31;18065;55.876;9.830;2023-03-21T09:49:20;22.16;48.42
31443;SHT31;18065;55.876;9.830;2023-03-21T09:51:50;22.14;48.35
31443;SHT31;18065;55.876;9.830;2023-03-21T09:54:20;22.13;48.30
31443;SHT31;18065;55.876;9.830;2023-03-21T09:56:50;22.11;48.30
31443;SHT31;18065;55.876;9.830;2023-03-21T09:59:25;22.16;48.24
31443;SHT31;18065;55.876;9.830;2023-03-21T10:01:55;22.14;48.22
31443;SHT31;18065;55.876;9.830;2023-03-21T10:04:24;22.14;48.15
31443;SHT31;18065;55.876;9.830;2023-03-21T10:06:54;22.13;48.20
31443;SHT31;18065;55.876;9.830;2023-03-21T10:09:25;22.13;48.11
31443;SHT31;18065;55.876;9.830;2023-03-21T10:11:55;22.11;48.12
31443;SHT31;18065;55.876;9.830;2023-03-21T10:14:27;22.14;48.10
31443;SHT31;18065;55.876;9.830;2023-03-21T10:16:57;22.17;48.05
31443;SHT31;18065;55.876;9.830;2023-03-21T10:19:27;22.17;48.06
31443;SHT31;18065;55.876;9.830;2023-03-21T10:21:55;22.17;47.93
31443;SHT31;18065;55.876;9.830;2023-03-21T10:24:25;22.18;48.03
31443;SHT31;18065;55.876;9.830;2023-03-21T10:26:54;22.16;48.05
31443;SHT31;18065;55.876;9.830;2023-03-21T10:29:24;22.18;47.98
31443;SHT31;18065;55.876;9.830;2023-03-21T10:31:56;22.17;47.96
31443;SHT31;18065;55.876;9.830;2023-03-21T10:34:27;22.18;47.95
31443;SHT31;18065;55.876;9.830;2023-03-21T10:36:57;22.18;47.90
31443;SHT31;18065;55.876;9.830;2023-03-21T10:39:26;22.18;47.95
31443;SHT31;18065;55.876;9.830;2023-03-21T10:41:58;22.18;47.76
31443;SHT31;18065;55.876;9.830;2023-03-21T10:44:30;22.16;47.86
31443;SHT31;18065;55.876;9.830;2023-03-21T10:47:04;22.20;47.68
31443;SHT31;18065;55.876;9.830;2023-03-21T10:49:33;22.18;47.72
31443;SHT31;18065;55.876;9.830;2023-03-21T10:52:04;22.16;47.88
31443;SHT31;18065;55.876;9.830;2023-03-21T10:54:33;22.16;47.76
31443;SHT31;18065;55.876;9.830;2023-03-21T10:57:02;22.20;47.81
31443;SHT31;18065;55.876;9.830;2023-03-21T10:59:34;22.18;47.73
31443;SHT31;18065;55.876;9.830;2023-03-21T11:02:06;22.18;47.87
31443;SHT31;18065;55.876;9.830;2023-03-21T11:04:42;22.18;47.77
31443;SHT31;18065;55.876;9.830;2023-03-21T11:07:11;22.17;47.64
31443;SHT31;18065;55.876;9.830;2023-03-21T11:09:44;22.21;47.64
31443;SHT31;18065;55.876;9.830;2023-03-21T11:12:13;22.22;47.67
31443;SHT31;18065;55.876;9.830;2023-03-21T11:14:43;22.18;47.64
31443;SHT31;18065;55.876;9.830;2023-03-21T11:17:21;22.22;47.62
31443;SHT31;18065;55.876;9.830;2023-03-21T11:19:52;22.22;47.67
31443;SHT31;18065;55.876;9.830;2023-03-21T11:22:21;22.21;47.61
31443;SHT31;18065;55.876;9.830;2023-03-21T11:24:50;22.21;47.60
31443;SHT31;18065;55.876;9.830;2023-03-21T11:27:20;22.20;47.54
31443;SHT31;18065;55.876;9.830;2023-03-21T11:29:49;22.21;47.60
31443;SHT31;18065;55.876;9.830;2023-03-21T11:32:23;22.21;47.56
31443;SHT31;18065;55.876;9.830;2023-03-21T11:34:53;22.21;47.55
31443;SHT31;18065;55.876;9.830;2023-03-21T11:37:24;22.24;47.51
31443;SHT31;18065;55.876;9.830;2023-03-21T11:39:54;22.22;47.56
31443;SHT31;18065;55.876;9.830;2023-03-21T11:42:24;22.24;47.44
31443;SHT31;18065;55.876;9.830;2023-03-21T11:44:57;22.22;47.52
31443;SHT31;18065;55.876;9.830;2023-03-21T11:47:33;22.22;47.48
31443;SHT31;18065;55.876;9.830;2023-03-21T11:50:01;22.20;47.58
31443;SHT31;18065;55.876;9.830;2023-03-21T11:52:31;22.20;47.55
31443;SHT31;18065;55.876;9.830;2023-03-21T11:55:12;22.22;47.56
31443;SHT31;18065;55.876;9.830;2023-03-21T11:57:47;22.21;47.41
31443;SHT31;18065;55.876;9.830;2023-03-21T12:00:21;22.20;47.46
31443;SHT31;18065;55.876;9.830;2023-03-21T12:03:07;22.20;47.45
31443;SHT31;18065;55.876;9.830;2023-03-21T12:05:41;22.21;47.54
31443;SHT31;18065;55.876;9.830;2023-03-21T12:08:13;22.20;47.54
31443;SHT31;18065;55.876;9.830;2023-03-21T12:10:44;22.24;47.37
31443;SHT31;18065;55.876;9.830;2023-03-21T12:13:20;22.24;47.36
31443;SHT31;18065;55.876;9.830;2023-03-21T12:15:52;22.22;47.31
31443;SHT31;18065;55.876;9.830;2023-03-21T12:18:30;22.24;47.20
31443;SHT31;18065;55.876;9.830;2023-03-21T12:21:01;22.22;47.29
31443;SHT31;18065;55.876;9.830;2023-03-21T12:23:35;22.25;47.24
31443;SHT31;18065;55.876;9.830;2023-03-21T12:26:09;22.24;47.34
31443;SHT31;18065;55.876;9.830;2023-03-21T12:28:41;22.22;47.35
31443;SHT31;18065;55.876;9.830;2023-03-21T12:31:15;22.22;47.27
31443;SHT31;18065;55.876;9.830;2023-03-21T12:33:52;22.24;47.25
31443;SHT31;18065;55.876;9.830;2023-03-21T12:36:30;22.24;47.22
31443;SHT31;18065;55.876;9.830;2023-03-21T12:39:01;22.24;47.21
31443;SHT31;18065;55.876;9.830;2023-03-21T12:41:33;22.21;47.04
31443;SHT31;18065;55.876;9.830;2023-03-21T12:44:02;22.21;47.22
31443;SHT31;18065;55.876;9.830;2023-03-21T12:46:32;22.20;47.13
31443;SHT31;18065;55.876;9.830;2023-03-21T12:49:05;22.20;47.16
31443;SHT31;18065;55.876;9.830;2023-03-21T12:51:35;22.21;47.23
31443;SHT31;18065;55.876;9.830;2023-03-21T12:54:08;22.21;47.27
31443;SHT31;18065;55.876;9.830;2023-03-21T12:56:44;22.24;47.21
31443;SHT31;18065;55.876;9.830;2023-03-21T12:59:17;22.20;47.21
31443;SHT31;18065;55.876;9.830;2023-03-21T13:01:50;22.24;47.21
31443;SHT31;18065;55.876;9.830;2023-03-21T13:04:29;22.22;47.19
31443;SHT31;18065;55.876;9.830;2023-03-21T13:06:58;22.21;47.16
31443;SHT31;18065;55.876;9.830;2023-03-21T13:09:32;22.22;47.09
31443;SHT31;18065;55.876;9.830;2023-03-21T13:12:02;22.21;47.16
31443;SHT31;18065;55.876;9.830;2023-03-21T13:14:34;22.20;47.25
31443;SHT31;18065;55.876;9.830;2023-03-21T13:17:05;22.20;47.21
31443;SHT31;18065;55.876;9.830;2023-03-21T13:19:40;22.20;47.26
31443;SHT31;18065;55.876;9.830;2023-03-21T13:22:12;22.17;47.20
31443;SHT31;18065;55.876;9.830;2023-03-21T13:24:45;22.18;47.23
31443;SHT31;18065;55.876;9.830;2023-03-21T13:27:16;22.20;47.23
31443;SHT31;18065;55.876;9.830;2023-03-21T13:29:46;22.17;47.18
31443;SHT31;18065;55.876;9.830;2023-03-21T13:32:17;22.21;47.05
31443;SHT31;18065;55.876;9.830;2023-03-21T13:34:55;22.22;47.10
31443;SHT31;18065;55.876;9.830;2023-03-21T13:37:24;22.22;47.05
31443;SHT31;18065;55.876;9.830;2023-03-21T13:39:53;22.22;46.98
31443;SHT31;18065;55.876;9.830;2023-03-21T13:42:29;22.27;46.92
31443;SHT31;18065;55.876;9.830;2023-03-21T13:45:00;22.27;46.96
31443;SHT31;18065;55.876;9.830;2023-03-21T13:47:39;22.25;46.96
31443;SHT31;18065;55.876;9.830;2023-03-21T13:50:23;22.29;47.02
31443;SHT31;18065;55.876;9.830;2023-03-21T13:55:38;22.28;47.00
31443;SHT31;18065;55.876;9.830;2023-03-21T13:58:22;22.25;46.94
31443;SHT31;18065;55.876;9.830;2023-03-21T14:01:03;22.28;47.00
31443;SHT31;18065;55.876;9.830;2023-03-21T14:03:33;22.28;46.95
31443;SHT31;18065;55.876;9.830;2023-03-21T14:06:04;22.31;46.97
31443;SHT31;18065;55.876;9.830;2023-03-21T14:08:33;22.28;46.91
31443;SHT31;18065;55.876;9.830;2023-03-21T14:11:03;22.28;46.82
31443;SHT31;18065;55.876;9.830;2023-03-21T14:13:32;22.29;46.87
31443;SHT31;18065;55.876;9.830;2023-03-21T14:16:03;22.31;46.88
31443;SHT31;18065;55.876;9.830;2023-03-21T14:18:39;22.31;46.87
31443;SHT31;18065;55.876;9.830;2023-03-21T14:21:15;22.31;46.98
31443;SHT31;18065;55.876;9.830;2023-03-21T14:23:44;22.29;46.90
31443;SHT31;18065;55.876;9.830;2023-03-21T14:26:12;22.29;47.04
31443;SHT31;18065;55.876;9.830;2023-03-21T14:28:45;22.29;46.95
31443;SHT31;18065;55.876;9.830;2023-03-21T14:31:13;22.31;47.05
31443;SHT31;18065;55.876;9.830;2023-03-21T14:33:44;22.29;47.07
31443;SHT31;18065;55.876;9.830;2023-03-21T14:36:20;22.29;47.05
31443;SHT31;18065;55.876;9.830;2023-03-21T14:38:56;22.29;47.03
31443;SHT31;18065;55.876;9.830;2023-03-21T14:41:25;22.29;47.02
31443;SHT31;18065;55.876;9.830;2023-03-21T14:44:10;22.28;47.01
31443;SHT31;18065;55.876;9.830;2023-03-21T14:46:38;22.32;47.10
31443;SHT31;18065;55.876;9.830;2023-03-21T14:49:11;22.29;47.13
31443;SHT31;18065;55.876;9.830;2023-03-21T14:51:43;22.29;47.02
31443;SHT31;18065;55.876;9.830;2023-03-21T14:54:12;22.29;47.09
31443;SHT31;18065;55.876;9.830;2023-03-21T14:56:44;22.31;47.12
31443;SHT31;18065;55.876;9.830;2023-03-21T14:59:13;22.28;47.18
31443;SHT31;18065;55.876;9.830;2023-03-21T15:01:42;22.25;47.22
31443;SHT31;18065;55.876;9.830;2023-03-21T15:04:13;22.24;47.19
31443;SHT31;18065;55.876;9.830;2023-03-21T15:06:54;22.24;47.28
31443;SHT31;18065;55.876;9.830;2023-03-21T15:09:24;22.25;47.20
31443;SHT31;18065;55.876;9.830;2023-03-21T15:11:54;22.21;47.21
31443;SHT31;18065;55.876;9.830;2023-03-21T15:14:24;22.20;47.34
31443;SHT31;18065;55.876;9.830;2023-03-21T15:16:54;22.20;47.25
31443;SHT31;18065;55.876;9.830;2023-03-21T15:19:25;22.22;47.21
31443;SHT31;18065;55.876;9.830;2023-03-21T15:21:58;22.20;47.26
31443;SHT31;18065;55.876;9.830;2023-03-21T15:24:29;22.20;47.23
31443;SHT31;18065;55.876;9.830;2023-03-21T15:26:59;22.21;47.28
31443;SHT31;18065;55.876;9.830;2023-03-21T15:29:28;22.20;47.33
31443;SHT31;18065;55.876;9.830;2023-03-21T15:31:57;22.18;47.32
31443;SHT31;18065;55.876;9.830;2023-03-21T15:34:26;22.22;47.32
31443;SHT31;18065;55.876;9.830;2023-03-21T15:36:59;22.22;47.23
31443;SHT31;18065;55.876;9.830;2023-03-21T15:39:29;22.25;47.29
31443;SHT31;18065;55.876;9.830;2023-03-21T15:42:00;22.21;47.22
31443;SHT31;18065;55.876;9.830;2023-03-21T15:44:28;22.21;47.29
31443;SHT31;18065;55.876;9.830;2023-03-21T15:46:57;22.21;47.25
31443;SHT31;18065;55.876;9.830;2023-03-21T15:49:27;22.24;47.27
31443;SHT31;18065;55.876;9.830;2023-03-21T15:52:06;22.22;47.24
31443;SHT31;18065;55.876;9.830;2023-03-21T15:54:41;22.24;47.23
31443;SHT31;18065;55.876;9.830;2023-03-21T15:57:17;22.24;47.24
31443;SHT31;18065;55.876;9.830;2023-03-21T15:59:46;22.25;47.24
31443;SHT31;18065;55.876;9.830;2023-03-21T16:02:15;22.24;47.24